INFORMAÇÕES DO AERODROMO
Icao Aerodromo NZWN Nome do Aerodromo Wellington International Airport Cidade Wellington
Código GPS NZWN Elevação Média 41 ft Tipo de Aerodromo Aeroporto Grande Porte

INFORMAÇÃO DE PISTA
Pista 16 Comprimento da Pista 6352 ft Largura da Pista 148 ft
Elevação da Pista 41 ft Distância de Area de Escape da Pista 210 ft Orientação da Pista 183
Pista 34 Comprimento da Pista 6352 ft Largura da Pista 148 ft
Elevação da Pista 23 ft Distância de Area de Escape da Pista 210 ft Orientação da Pista 3

FREQUÊNCIAS DO AERODROMO
Tipo APP Nome APP Frequência 122.3 MHZ
Tipo ATIS Nome ATIS Frequência 126.9 MHZ
Tipo GND Nome GND Frequência 121.9 MHZ
Tipo TWR Nome TWR Frequência 118.8 MHZ

INFORMAÇÕES DE NAVEGAÇÃO PRÓXIMO AO AERODROMO
Tipo NDB Nome Newlands Frequência 358 KHZ
Tipo NDB Nome Titahi Bay Frequência 234 KHZ
Tipo VOR-DME Nome Wellington Frequência 112300 KHZ
Tipo NDB Nome Wellington Frequência 298 KHZ

Informações de Meteorologia(METAR atual)
METAR DE NZWN
ADDS - METARS form results

(0247 UTC 19 February 2019)
Data provider http://aviationweather.gov/metar/data/
 
METAR text: NZWN 190230Z AUTO 01022KT 9999 NCD 25/14 Q1010 NOSIG
Conditions at: NZWN (WELLINGTON INTL , NZ) observed 0230 UTC 19 February 2019
Temperature: 25.0°C (77°F)
Dewpoint: 14.0°C (57°F) [RH = 50%]
Pressure (altimeter): 29.82 inches Hg (1010.0 mb)
Winds: from the N (10 degrees) at 25 MPH (22 knots; 11.3 m/s)
Visibility: 6 or more miles (10+ km)
Ceiling: at least 12,000 feet AGL
Clouds: sky clear below 12,000 feet AGL
Weather: no significant weather observed at this time

METAR text: NZWN 190200Z AUTO 01023KT 9999 NCD 24/14 Q1010 NOSIG
Conditions at: NZWN (WELLINGTON INTL , NZ) observed 0200 UTC 19 February 2019
Temperature: 24.0°C (75°F)
Dewpoint: 14.0°C (57°F) [RH = 54%]
Pressure (altimeter): 29.82 inches Hg (1010.0 mb)
Winds: from the N (10 degrees) at 26 MPH (23 knots; 11.8 m/s)
Visibility: 6 or more miles (10+ km)
Ceiling: at least 12,000 feet AGL
Clouds: sky clear below 12,000 feet AGL
Weather: no significant weather observed at this time

Forecast for: NZWN (WELLINGTON INTL , NZ)
Text: TAF NZWN 182302Z 1900/2000 01020G30KT 9999 FEW025
Forecast period: 0000 UTC 19 February 2019 to 0000 UTC 20 February 2019
Forecast type: FROM: standard forecast or significant change
Winds: from the N (10 degrees) at 23 MPH (20 knots; 10.3 m/s)
gusting to 34 MPH (30 knots; 15.4 m/s)
Visibility: 6 or more miles 10+ km)
Ceiling: at least 12,000 feet AGL
Clouds: few clouds at 2500 feet AGL
Weather: no significant weather forecast for this period

MAPA DO AERODROMO


Desenvolvido por Virtual Airlines Manager




Modificado por Servidor Brasil Amigos